Time,TemperatureF,DewpointF,PressureIn,WindDirection,WindDirectionDegrees,WindSpeedMPH,WindSpeedGustMPH,Humidity,HourlyPrecipIn,Conditions,Clouds,dailyrainin,SoftwareType,DateUTC
2013-05-21 00:02:00,65.0,64.0,29.77,South,169,0.0,0.0,95,0.16,,,0.37,,2013-05-21 05:02:00,
2013-05-21 00:12:00,65.0,64.0,29.77,South,169,0.0,0.0,95,0.16,,,0.37,,2013-05-21 05:12:00,
2013-05-21 00:22:00,65.0,63.0,29.77,South,169,0.0,0.0,94,0.18,,,0.40,,2013-05-21 05:22:00,
2013-05-21 00:32:00,65.0,63.0,29.80,South,169,0.0,0.0,93,0.21,,,0.48,,2013-05-21 05:32:00,
2013-05-21 00:42:00,64.0,63.0,29.79,South,169,0.0,0.0,95,0.21,,,0.51,,2013-05-21 05:42:00,
2013-05-21 00:51:00,64.0,63.0,29.79,South,169,0.0,0.0,95,0.21,,,0.51,,2013-05-21 05:51:00,
2013-05-21 01:02:00,64.0,63.0,29.77,South,169,0.0,0.0,95,0.18,,,0.55,,2013-05-21 06:02:00,
2013-05-21 01:12:00,64.0,63.0,29.77,South,169,0.0,0.0,95,0.18,,,0.55,,2013-05-21 06:12:00,
2013-05-21 01:21:00,64.0,62.0,29.75,South,169,0.0,0.0,93,0.16,,,0.56,,2013-05-21 06:21:00,
2013-05-21 01:32:00,64.0,62.0,29.71,South,169,0.0,0.0,92,0.09,,,0.57,,2013-05-21 06:32:00,
2013-05-21 01:41:00,64.0,62.0,29.71,South,169,0.0,0.0,92,0.09,,,0.57,,2013-05-21 06:41:00,
2013-05-21 01:52:00,64.0,62.0,29.70,South,169,0.0,0.0,92,0.07,,,0.58,,2013-05-21 06:52:00,
2013-05-21 02:01:00,64.0,62.0,29.71,South,169,0.0,0.0,92,0.03,,,0.58,,2013-05-21 07:01:00,
2013-05-21 02:11:00,64.0,62.0,29.71,South,169,0.0,0.0,92,0.03,,,0.58,,2013-05-21 07:11:00,
2013-05-21 02:22:00,64.0,61.0,29.71,South,169,0.0,0.0,91,0.02,,,0.58,,2013-05-21 07:22:00,
2013-05-21 02:31:00,64.0,61.0,29.72,South,169,0.0,0.0,89,0.01,,,0.58,,2013-05-21 07:31:00,
2013-05-21 02:41:00,64.0,61.0,29.72,South,169,0.0,0.0,89,0.01,,,0.58,,2013-05-21 07:41:00,
2013-05-21 02:52:00,64.0,62.0,29.72,South,169,0.0,0.0,92,0.00,,,0.58,,2013-05-21 07:52:00,
2013-05-21 03:02:00,64.0,62.0,29.72,South,169,0.0,0.0,93,0.00,,,0.58,,2013-05-21 08:02:00,
2013-05-21 03:11:00,64.0,62.0,29.72,South,169,0.0,0.0,93,0.00,,,0.58,,2013-05-21 08:11:00,
2013-05-21 03:21:00,64.0,62.0,29.73,South,169,0.0,0.0,93,0.00,,,0.58,,2013-05-21 08:21:00,
2013-05-21 03:31:00,63.0,62.0,29.75,South,169,0.0,0.0,95,0.00,,,0.58,,2013-05-21 08:31:00,
2013-05-21 03:41:00,63.0,62.0,29.75,South,169,0.0,0.0,95,0.00,,,0.58,,2013-05-21 08:41:00,
2013-05-21 03:52:00,63.0,62.0,29.75,South,169,0.0,0.0,95,0.00,,,0.58,,2013-05-21 08:52:00,
2013-05-21 04:01:00,63.0,62.0,29.73,South,169,0.0,0.0,95,0.00,,,0.58,,2013-05-21 09:01:00,
2013-05-21 04:11:00,63.0,62.0,29.73,South,169,0.0,0.0,95,0.00,,,0.58,,2013-05-21 09:11:00,
2013-05-21 04:21:00,63.0,62.0,29.73,South,169,0.0,0.0,96,0.00,,,0.58,,2013-05-21 09:21:00,
2013-05-21 04:32:00,63.0,62.0,29.74,South,169,0.0,0.0,95,0.00,,,0.58,,2013-05-21 09:32:00,
2013-05-21 04:42:00,63.0,62.0,29.74,South,169,0.0,0.0,95,0.00,,,0.58,,2013-05-21 09:42:00,
2013-05-21 04:52:00,63.0,61.0,29.74,South,169,0.0,0.0,94,0.00,,,0.58,,2013-05-21 09:52:00,
2013-05-21 05:02:00,64.0,62.0,29.74,South,169,0.0,0.0,92,0.00,,,0.58,,2013-05-21 10:02:00,
2013-05-21 05:12:00,64.0,62.0,29.74,South,169,0.0,0.0,92,0.00,,,0.58,,2013-05-21 10:12:00,
2013-05-21 05:22:00,64.0,61.0,29.74,South,169,0.0,0.0,90,0.00,,,0.58,,2013-05-21 10:22:00,
2013-05-21 05:32:00,65.0,62.0,29.73,South,169,0.0,0.0,90,0.00,,,0.58,,2013-05-21 10:32:00,
2013-05-21 05:42:00,65.0,62.0,29.73,South,169,0.0,0.0,90,0.00,,,0.58,,2013-05-21 10:42:00,
2013-05-21 05:52:00,65.0,62.0,29.73,South,169,0.0,0.0,91,0.00,,,0.58,,2013-05-21 10:52:00,
2013-05-21 06:02:00,65.0,62.0,29.73,South,169,0.0,0.0,91,0.00,,,0.58,,2013-05-21 11:02:00,
2013-05-21 06:12:00,65.0,62.0,29.73,South,169,0.0,0.0,91,0.00,,,0.58,,2013-05-21 11:12:00,
2013-05-21 06:21:00,65.0,62.0,29.73,South,169,0.0,0.0,91,0.00,,,0.58,,2013-05-21 11:21:00,
2013-05-21 06:32:00,65.0,63.0,29.72,South,169,0.0,0.0,92,0.00,,,0.58,,2013-05-21 11:32:00,
2013-05-21 06:41:00,65.0,63.0,29.72,South,169,0.0,0.0,92,0.00,,,0.58,,2013-05-21 11:41:00,
2013-05-21 06:51:00,65.0,62.0,29.73,South,169,0.0,0.0,91,0.00,,,0.58,,2013-05-21 11:51:00,
2013-05-21 07:01:00,65.0,62.0,29.72,South,169,0.0,0.0,91,0.00,,,0.58,,2013-05-21 12:01:00,
2013-05-21 07:11:00,65.0,62.0,29.72,South,169,0.0,0.0,91,0.00,,,0.58,,2013-05-21 12:11:00,
2013-05-21 07:21:00,66.0,63.0,29.72,South,169,0.0,0.0,90,0.00,,,0.58,,2013-05-21 12:21:00,
2013-05-21 07:32:00,66.0,63.0,29.72,South,169,0.0,0.0,90,0.00,,,0.58,,2013-05-21 12:32:00,
2013-05-21 07:42:00,66.0,63.0,29.72,South,169,0.0,0.0,90,0.00,,,0.58,,2013-05-21 12:42:00,
2013-05-21 07:51:00,67.0,63.0,29.73,South,169,0.0,0.0,88,0.00,,,0.58,,2013-05-21 12:51:00,
2013-05-21 08:01:00,68.0,64.0,29.74,South,169,0.0,0.0,88,0.00,,,0.58,,2013-05-21 13:01:00,
2013-05-21 08:12:00,68.0,64.0,29.74,South,169,0.0,0.0,88,0.00,,,0.58,,2013-05-21 13:12:00,
2013-05-21 08:22:00,67.0,63.0,29.74,South,169,0.0,0.0,88,0.00,,,0.58,,2013-05-21 13:22:00,
2013-05-21 08:32:00,68.0,64.0,29.75,South,169,0.0,0.0,88,0.00,,,0.58,,2013-05-21 13:32:00,
2013-05-21 08:41:00,68.0,64.0,29.75,South,169,0.0,0.0,88,0.00,,,0.58,,2013-05-21 13:41:00,
2013-05-21 08:52:00,68.0,64.0,29.74,South,169,0.0,0.0,87,0.00,,,0.58,,2013-05-21 13:52:00,
2013-05-21 09:01:00,69.0,64.0,29.75,South,169,0.0,0.0,85,0.00,,,0.58,,2013-05-21 14:01:00,
2013-05-21 09:11:00,69.0,64.0,29.75,South,169,0.0,0.0,85,0.00,,,0.58,,2013-05-21 14:11:00,
2013-05-21 09:21:00,69.0,64.0,29.75,South,169,0.0,0.0,84,0.00,,,0.57,,2013-05-21 14:21:00,
2013-05-21 09:32:00,69.0,64.0,29.73,South,169,0.0,0.0,83,0.00,,,0.57,,2013-05-21 14:32:00,
2013-05-21 09:41:00,69.0,64.0,29.73,South,169,0.0,0.0,83,0.00,,,0.57,,2013-05-21 14:41:00,
2013-05-21 09:51:00,70.0,65.0,29.74,South,169,0.0,0.0,84,0.00,,,0.57,,2013-05-21 14:51:00,
2013-05-21 10:01:00,72.0,65.0,29.73,South,169,0.0,0.0,79,0.00,,,0.57,,2013-05-21 15:01:00,
2013-05-21 10:11:00,72.0,65.0,29.73,South,169,0.0,0.0,79,0.00,,,0.57,,2013-05-21 15:11:00,
2013-05-21 10:21:00,72.0,65.0,29.73,South,169,0.0,0.0,78,0.00,,,0.57,,2013-05-21 15:21:00,
2013-05-21 10:33:00,73.0,65.0,29.74,South,169,0.0,0.0,77,0.00,,,0.57,,2013-05-21 15:33:00,
2013-05-21 10:42:00,73.0,65.0,29.74,South,169,0.0,0.0,76,0.00,,,0.57,,2013-05-21 15:42:00,
2013-05-21 10:52:00,73.0,65.0,29.74,South,169,0.0,0.0,76,0.00,,,0.57,,2013-05-21 15:52:00,
2013-05-21 11:03:00,74.0,67.0,29.75,South,169,0.0,0.0,79,0.00,,,0.57,,2013-05-21 16:03:00,
2013-05-21 11:12:00,74.0,67.0,29.75,South,169,0.0,0.0,79,0.00,,,0.57,,2013-05-21 16:12:00,
2013-05-21 11:23:00,73.0,66.0,29.75,South,169,0.0,0.0,79,0.00,,,0.57,,2013-05-21 16:23:00,
2013-05-21 11:32:00,74.0,67.0,29.76,South,169,0.0,0.0,78,0.00,,,0.57,,2013-05-21 16:32:00,
2013-05-21 11:42:00,74.0,67.0,29.76,South,169,0.0,0.0,78,0.00,,,0.57,,2013-05-21 16:42:00,
2013-05-21 11:52:00,74.0,67.0,29.76,South,169,0.0,0.0,78,0.00,,,0.57,,2013-05-21 16:52:00,
2013-05-21 12:02:00,76.0,66.0,29.75,South,169,0.0,0.0,71,0.00,,,0.57,,2013-05-21 17:02:00,
2013-05-21 12:12:00,76.0,66.0,29.75,South,169,0.0,0.0,71,0.00,,,0.57,,2013-05-21 17:12:00,
2013-05-21 12:23:00,75.0,65.0,29.74,South,169,0.0,0.0,72,0.00,,,0.57,,2013-05-21 17:23:00,
2013-05-21 12:32:00,77.0,66.0,29.74,South,169,0.0,0.0,68,0.00,,,0.57,,2013-05-21 17:32:00,
2013-05-21 12:43:00,77.0,66.0,29.75,South,169,0.0,0.0,68,0.00,,,0.57,,2013-05-21 17:43:00,
2013-05-21 12:52:00,77.0,66.0,29.75,South,169,0.0,0.0,68,0.00,,,0.57,,2013-05-21 17:52:00,
2013-05-21 13:01:00,77.0,65.0,29.75,South,169,0.0,0.0,66,0.00,,,0.57,,2013-05-21 18:01:00,
2013-05-21 13:12:00,77.0,65.0,29.75,South,169,0.0,0.0,66,0.00,,,0.57,,2013-05-21 18:12:00,
2013-05-21 13:22:00,77.0,65.0,29.75,South,169,0.0,0.0,66,0.00,,,0.57,,2013-05-21 18:22:00,
2013-05-21 13:32:00,77.0,65.0,29.75,South,169,0.0,0.0,67,0.00,,,0.57,,2013-05-21 18:32:00,
2013-05-21 13:42:00,77.0,66.0,29.75,South,169,0.0,0.0,68,0.00,,,0.57,,2013-05-21 18:42:00,
2013-05-21 13:51:00,77.0,66.0,29.75,South,169,0.0,0.0,68,0.00,,,0.57,,2013-05-21 18:51:00,
2013-05-21 14:01:00,78.0,65.0,29.74,South,169,0.0,0.0,64,0.00,,,0.57,,2013-05-21 19:01:00,
2013-05-21 14:11:00,78.0,65.0,29.74,South,169,0.0,0.0,64,0.00,,,0.57,,2013-05-21 19:11:00,
2013-05-21 14:21:00,79.0,66.0,29.74,South,169,0.0,0.0,65,0.00,,,0.57,,2013-05-21 19:21:00,
2013-05-21 14:32:00,78.0,65.0,29.74,South,169,0.0,0.0,65,0.00,,,0.57,,2013-05-21 19:32:00,
2013-05-21 14:42:00,78.0,65.0,29.74,South,169,0.0,0.0,65,0.00,,,0.57,,2013-05-21 19:42:00,
2013-05-21 14:52:00,78.0,66.0,29.74,South,169,0.0,0.0,67,0.00,,,0.57,,2013-05-21 19:52:00,
2013-05-21 15:03:00,79.0,66.0,29.74,South,169,0.0,0.0,64,0.00,,,0.57,,2013-05-21 20:03:00,
2013-05-21 15:11:00,79.0,66.0,29.74,South,169,0.0,0.0,64,0.00,,,0.57,,2013-05-21 20:11:00,
2013-05-21 15:22:00,79.0,67.0,29.73,South,169,0.0,0.0,66,0.00,,,0.57,,2013-05-21 20:22:00,
2013-05-21 15:32:00,79.0,65.0,29.73,South,169,0.0,0.0,63,0.00,,,0.57,,2013-05-21 20:32:00,
2013-05-21 15:42:00,79.0,65.0,29.73,South,169,0.0,0.0,63,0.00,,,0.57,,2013-05-21 20:42:00,
2013-05-21 15:52:00,80.0,67.0,29.73,South,169,0.0,0.0,64,0.00,,,0.57,,2013-05-21 20:52:00,
2013-05-21 16:02:00,81.0,67.0,29.72,South,169,0.0,0.0,63,0.00,,,0.57,,2013-05-21 21:02:00,
2013-05-21 16:11:00,81.0,67.0,29.72,South,169,0.0,0.0,63,0.00,,,0.57,,2013-05-21 21:11:00,
2013-05-21 16:21:00,81.0,68.0,29.72,South,169,0.0,0.0,64,0.00,,,0.57,,2013-05-21 21:21:00,
2013-05-21 16:33:00,80.0,67.0,29.72,South,169,0.0,0.0,64,0.00,,,0.57,,2013-05-21 21:33:00,
2013-05-21 16:43:00,80.0,67.0,29.72,South,169,0.0,0.0,64,0.00,,,0.57,,2013-05-21 21:43:00,
2013-05-21 16:53:00,80.0,68.0,29.72,South,169,0.0,0.0,66,0.00,,,0.57,,2013-05-21 21:53:00,
2013-05-21 17:02:00,80.0,67.0,29.71,South,169,0.0,0.0,64,0.00,,,0.57,,2013-05-21 22:02:00,
2013-05-21 17:12:00,80.0,67.0,29.71,South,169,0.0,0.0,64,0.00,,,0.57,,2013-05-21 22:12:00,
2013-05-21 17:22:00,81.0,65.0,29.71,South,169,0.0,0.0,59,0.00,,,0.57,,2013-05-21 22:22:00,
2013-05-21 17:33:00,80.0,66.0,29.70,South,169,0.0,0.0,62,0.00,,,0.57,,2013-05-21 22:33:00,
2013-05-21 17:42:00,80.0,66.0,29.70,South,169,0.0,0.0,62,0.00,,,0.57,,2013-05-21 22:42:00,
2013-05-21 17:52:00,80.0,65.0,29.70,South,169,0.0,0.0,61,0.00,,,0.57,,2013-05-21 22:52:00,
2013-05-21 18:02:00,80.0,66.0,29.69,South,169,0.0,0.0,62,0.00,,,0.57,,2013-05-21 23:02:00,
2013-05-21 18:12:00,80.0,66.0,29.69,South,169,0.0,0.0,62,0.00,,,0.57,,2013-05-21 23:12:00,
2013-05-21 18:22:00,80.0,66.0,29.69,South,169,0.0,0.0,63,0.00,,,0.57,,2013-05-21 23:22:00,
2013-05-21 18:32:00,80.0,66.0,29.68,South,169,0.0,0.0,63,0.00,,,0.57,,2013-05-21 23:32:00,
2013-05-21 18:42:00,79.0,65.0,29.68,South,169,0.0,0.0,63,0.00,,,0.57,,2013-05-21 23:42:00,
2013-05-21 18:52:00,79.0,65.0,29.68,South,169,0.0,0.0,63,0.00,,,0.57,,2013-05-21 23:52:00,
2013-05-21 19:01:00,78.0,66.0,29.70,South,169,0.0,0.0,67,0.00,,,0.57,,2013-05-22 00:01:00,
2013-05-21 19:11:00,78.0,66.0,29.70,South,169,0.0,0.0,67,0.00,,,0.57,,2013-05-22 00:11:00,
2013-05-21 19:21:00,78.0,67.0,29.69,South,169,0.0,0.0,68,0.00,,,0.57,,2013-05-22 00:21:00,
2013-05-21 19:32:00,77.0,66.0,29.70,South,169,0.0,0.0,69,0.00,,,0.57,,2013-05-22 00:32:00,
2013-05-21 19:41:00,77.0,66.0,29.70,South,169,0.0,0.0,69,0.00,,,0.57,,2013-05-22 00:41:00,
2013-05-21 19:51:00,77.0,66.0,29.71,South,169,0.0,0.0,70,0.00,,,0.57,,2013-05-22 00:51:00,
2013-05-21 20:01:00,76.0,66.0,29.71,South,169,0.0,0.0,72,0.00,,,0.57,,2013-05-22 01:01:00,
2013-05-21 20:11:00,76.0,66.0,29.71,South,169,0.0,0.0,72,0.00,,,0.57,,2013-05-22 01:11:00,
2013-05-21 20:21:00,75.0,65.0,29.72,South,169,0.0,0.0,72,0.00,,,0.57,,2013-05-22 01:21:00,
2013-05-21 20:32:00,74.0,65.0,29.70,South,169,0.0,0.0,74,0.00,,,0.57,,2013-05-22 01:32:00,
2013-05-21 20:41:00,74.0,66.0,29.71,South,169,0.0,0.0,76,0.00,,,0.57,,2013-05-22 01:41:00,
2013-05-21 20:52:00,74.0,66.0,29.71,South,169,0.0,0.0,76,0.00,,,0.57,,2013-05-22 01:52:00,
2013-05-21 21:01:00,73.0,66.0,29.71,South,169,0.0,0.0,78,0.00,,,0.57,,2013-05-22 02:01:00,
2013-05-21 21:11:00,73.0,66.0,29.71,South,169,0.0,0.0,78,0.00,,,0.57,,2013-05-22 02:11:00,
2013-05-21 21:21:00,73.0,66.0,29.71,South,169,0.0,0.0,79,0.00,,,0.57,,2013-05-22 02:21:00,
2013-05-21 21:32:00,72.0,66.0,29.71,South,169,0.0,0.0,82,0.00,,,0.57,,2013-05-22 02:32:00,
2013-05-21 21:42:00,71.0,66.0,29.71,South,169,0.0,0.0,83,0.00,,,0.50,,2013-05-22 02:42:00,
2013-05-21 21:51:00,71.0,66.0,29.71,South,169,0.0,0.0,83,0.00,,,0.50,,2013-05-22 02:51:00,
2013-05-21 22:01:00,72.0,67.0,29.71,South,169,0.0,0.0,85,0.02,,,0.45,,2013-05-22 03:01:00,
2013-05-21 22:11:00,72.0,67.0,29.71,South,169,0.0,0.0,85,0.02,,,0.45,,2013-05-22 03:11:00,
2013-05-21 22:21:00,71.0,67.0,29.71,South,169,0.0,0.0,88,0.03,,,0.46,,2013-05-22 03:21:00,
2013-05-21 22:33:00,70.0,67.0,29.70,NW,316,0.0,0.0,91,0.03,,,0.44,,2013-05-22 03:33:00,
2013-05-21 22:43:00,69.0,66.0,29.70,NW,316,0.0,0.0,90,0.03,,,0.42,,2013-05-22 03:43:00,
2013-05-21 22:53:00,69.0,66.0,29.70,NW,316,0.0,0.0,90,0.03,,,0.42,,2013-05-22 03:53:00,
2013-05-21 23:03:00,69.0,67.0,29.70,NW,316,0.0,0.0,92,0.01,,,0.40,,2013-05-22 04:03:00,
2013-05-21 23:13:00,69.0,67.0,29.70,NW,316,0.0,0.0,92,0.01,,,0.40,,2013-05-22 04:13:00,
2013-05-21 23:23:00,70.0,68.0,29.70,NW,316,0.0,0.0,93,0.00,,,0.39,,2013-05-22 04:23:00,
2013-05-21 23:33:00,70.0,68.0,29.70,NW,316,0.0,0.0,92,0.00,,,0.34,,2013-05-22 04:33:00,
2013-05-21 23:43:00,70.0,67.0,29.70,NW,316,0.0,0.0,91,0.00,,,0.30,,2013-05-22 04:43:00,
2013-05-21 23:53:00,70.0,67.0,29.70,NW,316,0.0,0.0,91,0.00,,,0.30,,2013-05-22 04:53:00,